Time;durP1;ratioP1;P1;durP2;ratioP2;P2;SDS_P1;SDS_P2;PMS_P1;PMS_P2;Temp;Humidity;BMP_temperature;BMP_pressure;BME280_temperature;BME280_humidity;BME280_pressure;Samples;Min_cycle;Max_cycle;Signal;HPM_P1;HPM_P2
2021/08/22 00:00:08;;;;;;;4.47;2.53;;;15.70;99.90;;;;;;4992220;28;20070;-41
2021/08/22 00:02:34;;;;;;;12.02;2.60;;;15.70;99.90;;;;;;4991649;28;20038;-40
2021/08/22 00:05:00;;;;;;;6.03;2.88;;;15.70;99.90;;;;;;4991553;28;20464;-40
2021/08/22 00:07:25;;;;;;;6.85;3.00;;;15.70;99.90;;;;;;4991495;28;20022;-40
2021/08/22 00:09:51;;;;;;;4.55;2.75;;;15.70;99.90;;;;;;4991019;28;20426;-43
2021/08/22 00:12:17;;;;;;;4.53;2.95;;;15.60;99.90;;;;;;4991526;28;20477;-44
2021/08/22 00:14:42;;;;;;;3.05;2.25;;;15.70;99.90;;;;;;4991687;28;20066;-42
2021/08/22 00:17:08;;;;;;;3.50;2.15;;;15.60;99.90;;;;;;4991745;28;20401;-41
2021/08/22 00:19:33;;;;;;;3.55;2.75;;;15.60;99.90;;;;;;4991500;28;20081;-40
2021/08/22 00:21:59;;;;;;;3.38;2.80;;;15.60;99.90;;;;;;4991450;28;20026;-40
2021/08/22 00:24:24;;;;;;;3.10;2.80;;;15.60;99.90;;;;;;4990463;28;20031;-42
2021/08/22 00:26:51;;;;;;;3.58;2.63;;;15.50;99.90;;;;;;4991637;28;20026;-42
2021/08/22 00:29:17;;;;;;;4.47;2.30;;;15.50;99.90;;;;;;4991438;28;20591;-40
2021/08/22 00:31:43;;;;;;;3.33;2.17;;;15.40;99.90;;;;;;4991527;28;20113;-40
2021/08/22 00:34:08;;;;;;;4.15;3.15;;;15.30;99.90;;;;;;4991511;28;20018;-41
2021/08/22 00:36:34;;;;;;;3.42;2.47;;;15.30;99.90;;;;;;4991246;28;20117;-40
2021/08/22 00:38:59;;;;;;;5.35;2.60;;;15.30;99.90;;;;;;4990808;28;20022;-41
2021/08/22 00:41:25;;;;;;;5.20;2.88;;;15.20;99.90;;;;;;4992339;28;20149;-40
2021/08/22 00:43:51;;;;;;;2.95;2.63;;;15.20;99.90;;;;;;4995383;28;20069;-44
2021/08/22 00:46:17;;;;;;;3.80;3.25;;;15.10;99.90;;;;;;4995205;28;20065;-40
2021/08/22 00:48:44;;;;;;;4.15;2.80;;;15.20;99.90;;;;;;4995460;28;20026;-40
2021/08/22 00:51:15;;;;;;;6.93;2.72;;;15.10;99.90;;;;;;4995035;28;20058;-40
2021/08/22 00:53:43;;;;;;;5.15;3.22;;;15.10;99.90;;;;;;4994752;28;20046;-40
2021/08/22 00:56:09;;;;;;;4.63;3.15;;;15.10;99.90;;;;;;5016065;28;20030;-42
2021/08/22 00:58:35;;;;;;;4.25;2.78;;;15.10;99.90;;;;;;5016237;28;20157;-40
2021/08/22 01:01:01;;;;;;;5.70;3.47;;;15.10;99.90;;;;;;5016316;28;20537;-40
2021/08/22 01:03:40;;;;;;;3.42;2.80;;;15.10;99.90;;;;;;5015904;28;20615;-44
2021/08/22 01:06:36;;;;;;;3.67;2.83;;;15.20;99.90;;;;;;5016066;28;20437;-42
2021/08/22 01:09:09;;;;;;;3.97;3.45;;;15.20;99.90;;;;;;5015178;28;20030;-43
2021/08/22 01:11:37;;;;;;;3.22;2.92;;;15.30;99.90;;;;;;5016063;28;20114;-42
2021/08/22 01:14:11;;;;;;;3.42;3.13;;;15.30;99.90;;;;;;5015907;28;20466;-40
2021/08/22 01:16:50;;;;;;;5.22;3.05;;;15.40;99.90;;;;;;5015858;28;20465;-42
2021/08/22 01:19:33;;;;;;;8.75;3.65;;;15.40;99.90;;;;;;5015981;28;20087;-40
2021/08/22 01:22:01;;;;;;;6.20;2.95;;;15.40;99.90;;;;;;5015863;28;20022;-44
2021/08/22 01:24:27;;;;;;;4.65;2.90;;;15.40;99.90;;;;;;5014580;28;20075;-40
2021/08/22 01:26:56;;;;;;;3.80;2.78;;;15.40;99.90;;;;;;5015813;28;20030;-40
2021/08/22 01:29:29;;;;;;;4.20;2.58;;;15.40;99.90;;;;;;5015758;28;20024;-40
2021/08/22 01:32:00;;;;;;;4.95;2.92;;;15.30;99.90;;;;;;5015653;28;20022;-40
2021/08/22 01:34:26;;;;;;;3.65;3.00;;;15.30;99.90;;;;;;5015533;28;20548;-44
2021/08/22 01:36:52;;;;;;;3.88;3.33;;;15.30;99.90;;;;;;5015302;28;20044;-40
2021/08/22 01:39:19;;;;;;;3.53;3.17;;;15.30;99.90;;;;;;5014534;28;20030;-40
2021/08/22 01:41:47;;;;;;;6.40;3.42;;;15.40;99.90;;;;;;5015421;28;20105;-44
2021/08/22 01:44:19;;;;;;;5.28;3.92;;;15.40;99.90;;;;;;5015332;28;20105;-42
2021/08/22 01:46:46;;;;;;;4.72;3.63;;;15.30;99.90;;;;;;5015298;28;20032;-42
2021/08/22 01:49:12;;;;;;;4.15;3.33;;;15.40;99.90;;;;;;5015333;28;20029;-41
2021/08/22 01:51:40;;;;;;;5.38;3.90;;;15.40;99.90;;;;;;5015146;28;20022;-40
2021/08/22 01:54:08;;;;;;;3.70;3.15;;;15.30;99.90;;;;;;5014046;28;20096;-40
2021/08/22 01:56:38;;;;;;;6.88;3.67;;;15.30;99.90;;;;;;5014957;28;20029;-40
2021/08/22 01:59:04;;;;;;;4.25;3.08;;;15.30;99.90;;;;;;5015113;28;20022;-40
2021/08/22 02:01:30;;;;;;;5.40;3.63;;;15.30;99.90;;;;;;5014856;28;20026;-40
2021/08/22 02:04:01;;;;;;;4.43;3.08;;;15.30;99.90;;;;;;5013641;28;20065;-40
2021/08/22 02:06:38;;;;;;;4.07;3.30;;;15.20;99.90;;;;;;5014644;28;20026;-42
2021/08/22 02:09:07;;;;;;;3.63;2.72;;;15.20;99.90;;;;;;5014017;28;20025;-43
2021/08/22 02:11:50;;;;;;;5.57;3.10;;;15.20;99.90;;;;;;5014875;28;20026;-40
2021/08/22 02:14:17;;;;;;;4.40;3.10;;;15.20;99.90;;;;;;5014782;28;20490;-40
2021/08/22 02:16:51;;;;;;;5.97;3.53;;;15.10;99.90;;;;;;5014603;28;20442;-40
2021/08/22 02:19:18;;;;;;;4.70;3.72;;;15.10;99.90;;;;;;5014806;28;20037;-40
2021/08/22 02:21:44;;;;;;;4.85;3.45;;;15.10;99.90;;;;;;5014674;28;20030;-40
2021/08/22 02:24:10;;;;;;;5.38;4.13;;;15.10;99.90;;;;;;5013737;28;20059;-40
2021/08/22 02:26:36;;;;;;;4.13;3.22;;;15.10;99.90;;;;;;5014566;28;20037;-42
2021/08/22 02:29:02;;;;;;;4.78;3.35;;;15.10;99.90;;;;;;5014480;28;20072;-40
2021/08/22 02:31:29;;;;;;;5.25;3.25;;;15.10;99.90;;;;;;5014564;28;20037;-40
2021/08/22 02:33:56;;;;;;;3.47;3.08;;;15.00;99.90;;;;;;5014590;28;20029;-42
2021/08/22 02:36:21;;;;;;;4.88;3.45;;;15.00;99.90;;;;;;5014441;28;20025;-41
2021/08/22 02:38:47;;;;;;;6.57;2.92;;;15.00;99.90;;;;;;5013360;28;20034;-40
2021/08/22 02:41:12;;;;;;;3.55;2.80;;;15.00;99.90;;;;;;5014459;28;20034;-40
2021/08/22 02:43:39;;;;;;;5.63;4.03;;;14.90;99.90;;;;;;5014183;28;20057;-40
2021/08/22 02:46:05;;;;;;;7.75;4.38;;;15.00;99.90;;;;;;5014171;28;20034;-40
2021/08/22 02:48:31;;;;;;;6.45;3.83;;;15.00;99.90;;;;;;5014220;28;20435;-39
2021/08/22 02:50:56;;;;;;;3.95;2.83;;;15.00;99.90;;;;;;5014134;28;20049;-40
2021/08/22 02:53:22;;;;;;;6.30;3.95;;;15.00;99.90;;;;;;5013091;28;20026;-41
2021/08/22 02:55:47;;;;;;;4.95;3.42;;;15.10;99.90;;;;;;5014017;28;20040;-39
2021/08/22 02:58:13;;;;;;;6.50;3.10;;;15.10;99.90;;;;;;5014074;28;20068;-40
2021/08/22 03:00:39;;;;;;;6.20;3.28;;;15.10;99.90;;;;;;5013882;28;20088;-42
2021/08/22 03:03:05;;;;;;;6.40;3.72;;;15.10;99.90;;;;;;5013785;28;20069;-40
2021/08/22 03:05:30;;;;;;;4.07;3.55;;;15.20;99.90;;;;;;5012916;28;20417;-40
2021/08/22 03:07:56;;;;;;;3.72;3.33;;;15.20;99.90;;;;;;5012537;28;20022;-42
2021/08/22 03:10:21;;;;;;;3.85;3.25;;;15.20;99.90;;;;;;5013162;28;20069;-40
2021/08/22 03:12:47;;;;;;;4.97;2.85;;;15.20;99.90;;;;;;5013644;28;20025;-40
2021/08/22 03:15:13;;;;;;;8.65;3.78;;;15.30;99.90;;;;;;5013638;28;20502;-40
2021/08/22 03:17:38;;;;;;;4.78;3.03;;;15.30;99.90;;;;;;5013658;28;20034;-39
2021/08/22 03:20:04;;;;;;;4.35;3.08;;;15.30;99.90;;;;;;5013683;28;20034;-40
2021/08/22 03:22:31;;;;;;;6.18;3.25;;;15.40;99.90;;;;;;5013707;28;20607;-40
2021/08/22 03:24:57;;;;;;;5.22;4.03;;;15.30;99.90;;;;;;5012508;28;20492;-45
2021/08/22 03:27:23;;;;;;;5.30;2.95;;;15.30;99.90;;;;;;5013530;28;20153;-41
2021/08/22 03:29:49;;;;;;;3.20;2.90;;;15.40;99.90;;;;;;5013301;28;20151;-40
2021/08/22 03:32:14;;;;;;;4.45;3.28;;;15.30;99.90;;;;;;5013445;28;20030;-40
2021/08/22 03:34:40;;;;;;;5.10;3.20;;;15.30;99.90;;;;;;5013194;28;20156;-41
2021/08/22 03:37:07;;;;;;;4.15;3.13;;;15.30;99.90;;;;;;5013438;28;20068;-42
2021/08/22 03:39:33;;;;;;;3.88;3.08;;;15.30;99.90;;;;;;5012437;28;20025;-40
2021/08/22 03:41:59;;;;;;;4.22;3.25;;;15.30;99.90;;;;;;5013199;28;20032;-40
2021/08/22 03:44:24;;;;;;;5.97;3.22;;;15.30;99.90;;;;;;5013116;28;20037;-40
2021/08/22 03:46:50;;;;;;;4.13;3.30;;;15.30;99.90;;;;;;5013148;28;20053;-40
2021/08/22 03:49:15;;;;;;;6.15;3.50;;;15.40;99.90;;;;;;5013241;28;20061;-40
2021/08/22 03:51:41;;;;;;;6.40;3.95;;;15.40;99.90;;;;;;5013125;28;20409;-40
2021/08/22 03:54:06;;;;;;;5.65;3.38;;;15.40;99.90;;;;;;5012276;28;20038;-39
2021/08/22 03:56:32;;;;;;;3.97;3.22;;;15.40;99.90;;;;;;5013173;28;20038;-42
2021/08/22 03:58:57;;;;;;;8.70;3.60;;;15.50;99.90;;;;;;5012896;28;20041;-40
2021/08/22 04:01:23;;;;;;;3.75;3.13;;;15.40;99.90;;;;;;5013127;28;20504;-40
2021/08/22 04:03:50;;;;;;;5.72;3.22;;;15.50;99.90;;;;;;5012807;28;20046;-40
2021/08/22 04:06:16;;;;;;;7.05;3.38;;;15.40;99.90;;;;;;5012925;28;20030;-40
2021/08/22 04:08:41;;;;;;;6.85;3.45;;;15.40;99.90;;;;;;5012045;28;20029;-40
2021/08/22 04:11:08;;;;;;;3.80;2.80;;;15.50;99.90;;;;;;5013004;28;20408;-40
2021/08/22 04:13:34;;;;;;;7.85;3.17;;;15.50;99.90;;;;;;5012849;28;20040;-40
2021/08/22 04:16:00;;;;;;;5.78;3.40;;;15.50;99.90;;;;;;5012633;28;20030;-40
2021/08/22 04:18:25;;;;;;;5.68;3.10;;;15.50;99.90;;;;;;5012963;28;20026;-40
2021/08/22 04:20:51;;;;;;;4.82;3.45;;;15.60;99.90;;;;;;5012830;28;20053;-39
2021/08/22 04:23:16;;;;;;;4.97;3.13;;;15.60;99.90;;;;;;5027181;28;20194;-40
2021/08/22 04:25:43;;;;;;;3.88;3.05;;;15.50;99.90;;;;;;5012690;28;20030;-40
2021/08/22 04:28:09;;;;;;;3.85;2.80;;;15.50;99.90;;;;;;5012675;28;20032;-40
2021/08/22 04:30:34;;;;;;;5.85;3.30;;;15.50;99.90;;;;;;5012796;28;20025;-42
2021/08/22 04:33:00;;;;;;;3.58;2.88;;;15.50;99.90;;;;;;5012704;28;20030;-40
2021/08/22 04:35:29;;;;;;;4.55;3.03;;;15.50;99.90;;;;;;5012741;28;20354;-39
2021/08/22 04:37:55;;;;;;;3.90;2.65;;;15.50;99.90;;;;;;5012306;28;20044;-40
2021/08/22 04:40:21;;;;;;;3.10;2.78;;;15.50;99.90;;;;;;5012058;28;20448;-40
2021/08/22 04:42:46;;;;;;;3.35;3.05;;;15.60;99.90;;;;;;5012492;28;20033;-42
2021/08/22 04:45:12;;;;;;;5.80;2.67;;;15.50;99.90;;;;;;5011351;28;20068;-41
2021/08/22 04:47:37;;;;;;;3.60;2.38;;;15.60;99.90;;;;;;5012648;28;20026;-40
2021/08/22 04:50:03;;;;;;;4.68;2.92;;;15.70;99.90;;;;;;5012485;28;20105;-43
2021/08/22 04:52:29;;;;;;;5.85;3.20;;;15.70;99.90;;;;;;5012635;28;20026;-42
2021/08/22 04:54:54;;;;;;;4.10;2.95;;;15.80;99.90;;;;;;5011555;28;20034;-43
2021/08/22 04:57:20;;;;;;;3.55;2.97;;;15.80;99.90;;;;;;5012374;28;20416;-40
2021/08/22 04:59:45;;;;;;;4.88;3.15;;;15.90;99.90;;;;;;5012533;28;20105;-41
2021/08/22 05:02:11;;;;;;;4.97;3.17;;;15.90;99.90;;;;;;5012441;28;20030;-43
2021/08/22 05:04:36;;;;;;;7.10;2.75;;;15.90;99.90;;;;;;5012300;28;20046;-41
2021/08/22 05:07:02;;;;;;;4.18;2.65;;;16.00;99.90;;;;;;5012369;28;20414;-42
2021/08/22 05:09:28;;;;;;;2.67;2.42;;;16.10;99.90;;;;;;5011510;28;20045;-42
2021/08/22 05:11:53;;;;;;;3.47;2.92;;;16.20;99.90;;;;;;5012125;28;20026;-43
2021/08/22 05:14:19;;;;;;;4.18;2.70;;;16.30;99.90;;;;;;5012318;28;20025;-40
2021/08/22 05:16:44;;;;;;;3.72;2.60;;;16.50;99.90;;;;;;5012370;28;20026;-40
2021/08/22 05:19:10;;;;;;;5.03;2.90;;;16.90;99.90;;;;;;5011757;28;20038;-42
2021/08/22 05:21:35;;;;;;;3.33;2.55;;;17.30;99.90;;;;;;5009619;28;20032;-43
2021/08/22 05:24:01;;;;;;;3.05;2.45;;;17.60;99.90;;;;;;5009734;28;20041;-40
2021/08/22 05:26:26;;;;;;;4.95;2.47;;;17.80;99.90;;;;;;5010304;28;20030;-43
2021/08/22 05:28:52;;;;;;;3.25;2.95;;;17.90;99.90;;;;;;5012186;28;20080;-42
2021/08/22 05:31:18;;;;;;;4.05;2.67;;;18.10;99.90;;;;;;5014127;28;20473;-43
2021/08/22 05:33:44;;;;;;;3.15;2.42;;;18.30;99.90;;;;;;5014001;28;20109;-43
2021/08/22 05:36:17;;;;;;;5.40;2.60;;;18.50;99.90;;;;;;5013967;28;20053;-43
2021/08/22 05:38:43;;;;;;;3.60;2.60;;;18.50;99.90;;;;;;5013053;28;20029;-43
2021/08/22 05:41:09;;;;;;;5.10;3.10;;;18.70;99.90;;;;;;5013875;28;20536;-42
2021/08/22 05:43:34;;;;;;;5.28;2.35;;;18.90;99.90;;;;;;5014017;28;20030;-44
2021/08/22 05:46:00;;;;;;;3.40;2.83;;;18.90;99.90;;;;;;5013694;28;20038;-42
2021/08/22 05:48:25;;;;;;;2.90;2.40;;;18.90;99.90;;;;;;5013668;28;20037;-41
2021/08/22 05:50:51;;;;;;;3.03;2.50;;;19.30;99.90;;;;;;5013801;28;20192;-42
2021/08/22 05:53:16;;;;;;;2.88;2.50;;;20.00;99.90;;;;;;5012824;28;20505;-44
2021/08/22 05:55:41;;;;;;;3.40;2.42;;;20.40;99.90;;;;;;5013473;28;20112;-41
2021/08/22 05:58:07;;;;;;;3.20;2.38;;;20.90;99.90;;;;;;5013592;28;20045;-43
2021/08/22 06:00:32;;;;;;;10.85;2.30;;;21.40;98.70;;;;;;5013550;28;20536;-41
2021/08/22 06:02:58;;;;;;;2.80;2.10;;;21.80;96.10;;;;;;5013100;28;20472;-43
2021/08/22 06:05:23;;;;;;;3.28;2.45;;;22.10;93.00;;;;;;4987006;28;20050;-44
2021/08/22 06:07:49;;;;;;;4.97;2.38;;;21.90;90.40;;;;;;4987920;28;20092;-45
2021/08/22 06:10:14;;;;;;;3.38;2.50;;;22.30;89.50;;;;;;5012317;28;20425;-44
2021/08/22 06:12:40;;;;;;;3.67;2.50;;;22.70;87.40;;;;;;5013228;28;20033;-44
2021/08/22 06:15:06;;;;;;;4.03;2.22;;;22.70;81.60;;;;;;5012989;28;20145;-42
2021/08/22 06:17:31;;;;;;;2.30;2.05;;;23.10;83.40;;;;;;5013370;28;20036;-42
2021/08/22 06:19:57;;;;;;;2.63;2.10;;;23.10;77.50;;;;;;5013119;28;20022;-44
2021/08/22 06:22:22;;;;;;;3.35;2.42;;;23.10;77.60;;;;;;5013135;28;20025;-42
2021/08/22 06:24:48;;;;;;;1.85;1.75;;;23.10;73.40;;;;;;5012063;28;20065;-44
2021/08/22 06:27:14;;;;;;;5.32;2.00;;;23.10;77.00;;;;;;5012958;28;20029;-44
2021/08/22 06:29:40;;;;;;;3.25;1.85;;;23.10;77.30;;;;;;5022215;28;20473;-44
2021/08/22 06:32:05;;;;;;;3.95;1.80;;;22.60;71.80;;;;;;5032329;28;20014;-41
2021/08/22 06:34:31;;;;;;;2.72;2.03;;;22.60;75.80;;;;;;5032730;28;20060;-42
2021/08/22 06:36:56;;;;;;;5.07;2.00;;;22.40;73.40;;;;;;5032378;28;20032;-44
2021/08/22 06:39:22;;;;;;;2.30;1.92;;;22.30;75.10;;;;;;5031257;28;20048;-45
2021/08/22 06:41:47;;;;;;;2.42;2.00;;;22.30;76.20;;;;;;5032343;28;20108;-42
2021/08/22 06:44:13;;;;;;;2.05;1.60;;;22.40;76.40;;;;;;5032315;28;20029;-43
2021/08/22 06:46:40;;;;;;;3.05;2.08;;;22.40;71.80;;;;;;5031203;28;20041;-44
2021/08/22 06:49:06;;;;;;;3.53;2.10;;;22.20;73.80;;;;;;5023825;28;20026;-46
2021/08/22 06:51:32;;;;;;;4.38;1.95;;;21.90;74.80;;;;;;4992766;28;20482;-41
2021/08/22 06:53:58;;;;;;;2.33;1.77;;;21.80;72.40;;;;;;4992089;28;20469;-43
2021/08/22 06:56:25;;;;;;;2.35;2.00;;;21.60;75.30;;;;;;4992626;28;20018;-41
2021/08/22 06:58:50;;;;;;;4.45;1.98;;;21.60;74.70;;;;;;4992887;28;20430;-41
2021/08/22 07:01:16;;;;;;;3.80;2.10;;;21.70;73.90;;;;;;4992454;28;20109;-41
2021/08/22 07:03:42;;;;;;;3.70;2.10;;;21.90;74.30;;;;;;4992401;28;20050;-42
2021/08/22 07:06:07;;;;;;;2.97;2.08;;;22.00;70.90;;;;;;4992421;28;20049;-44
2021/08/22 07:08:33;;;;;;;3.72;2.72;;;22.00;72.70;;;;;;4991736;28;20073;-43
2021/08/22 07:10:58;;;;;;;3.47;2.75;;;22.30;70.70;;;;;;4992551;28;20026;-42
2021/08/22 07:13:24;;;;;;;5.15;3.05;;;23.20;66.00;;;;;;4992508;28;20027;-42
2021/08/22 07:15:49;;;;;;;4.20;2.30;;;24.10;62.80;;;;;;4992612;28;20034;-44
2021/08/22 07:18:15;;;;;;;3.13;2.38;;;24.60;58.60;;;;;;4992557;28;20116;-44
2021/08/22 07:20:40;;;;;;;4.22;2.00;;;25.10;55.70;;;;;;4992550;28;20034;-42
2021/08/22 07:23:06;;;;;;;2.72;1.90;;;25.80;55.50;;;;;;4991557;28;20382;-39
2021/08/22 07:25:31;;;;;;;2.78;2.05;;;26.30;54.70;;;;;;5001157;28;20042;-40
2021/08/22 07:27:56;;;;;;;2.42;2.22;;;26.20;49.40;;;;;;5013592;28;20419;-40
2021/08/22 07:30:22;;;;;;;3.97;2.20;;;26.20;49.50;;;;;;5013505;28;20524;-42
2021/08/22 07:32:48;;;;;;;2.78;2.10;;;26.20;49.60;;;;;;5013504;28;20029;-39
2021/08/22 07:35:14;;;;;;;1.88;1.73;;;26.00;49.20;;;;;;5011639;28;20040;-39
2021/08/22 07:37:39;;;;;;;2.95;1.92;;;26.10;50.40;;;;;;5033091;28;20597;-40
2021/08/22 07:40:07;;;;;;;4.00;2.05;;;26.70;50.30;;;;;;5031833;28;20104;-40
2021/08/22 07:42:32;;;;;;;4.13;2.03;;;27.00;49.00;;;;;;5033056;28;20028;-43
2021/08/22 07:44:58;;;;;;;2.35;1.88;;;26.90;46.10;;;;;;5018321;28;20477;-40
2021/08/22 07:47:23;;;;;;;2.95;2.00;;;26.40;45.80;;;;;;5011623;28;20038;-41
2021/08/22 07:49:49;;;;;;;2.22;2.03;;;26.50;46.50;;;;;;5001912;28;20027;-39
2021/08/22 07:52:14;;;;;;;5.45;1.80;;;26.80;44.50;;;;;;4991516;28;20105;-39
2021/08/22 07:54:40;;;;;;;2.75;2.35;;;26.90;45.50;;;;;;4991038;28;20425;-40
2021/08/22 07:57:05;;;;;;;3.38;1.92;;;26.80;44.00;;;;;;4999865;28;20034;-42
2021/08/22 07:59:31;;;;;;;4.00;2.10;;;26.30;45.00;;;;;;5007591;28;20029;-42
2021/08/22 08:01:57;;;;;;;5.43;2.10;;;25.90;45.60;;;;;;5026664;28;20520;-40
2021/08/22 08:04:23;;;;;;;4.00;2.05;;;25.70;46.90;;;;;;5013815;28;20106;-39
2021/08/22 08:06:48;;;;;;;4.20;2.30;;;25.20;47.40;;;;;;5012543;28;20036;-40
2021/08/22 08:09:14;;;;;;;3.08;2.10;;;25.00;48.70;;;;;;5011616;28;20152;-39
2021/08/22 08:11:39;;;;;;;3.10;2.20;;;25.70;48.40;;;;;;5012750;28;20022;-39
2021/08/22 08:14:04;;;;;;;3.55;2.00;;;26.40;46.30;;;;;;5012533;28;20034;-40
2021/08/22 08:16:31;;;;;;;2.60;1.83;;;26.90;45.60;;;;;;5012694;28;20034;-39
2021/08/22 08:18:56;;;;;;;3.45;2.08;;;26.30;45.40;;;;;;5012791;28;20683;-39
2021/08/22 08:21:22;;;;;;;2.92;2.10;;;25.90;46.00;;;;;;5012510;28;20037;-40
2021/08/22 08:23:48;;;;;;;3.47;2.55;;;25.60;45.40;;;;;;5011828;28;20073;-41
2021/08/22 08:26:13;;;;;;;3.20;2.10;;;25.20;48.10;;;;;;5012758;28;20029;-39
2021/08/22 08:28:40;;;;;;;3.28;1.98;;;24.80;49.60;;;;;;5012955;28;20026;-39
2021/08/22 08:31:05;;;;;;;3.70;2.17;;;24.60;50.20;;;;;;5012775;28;20018;-41
2021/08/22 08:33:31;;;;;;;3.35;2.15;;;24.50;50.60;;;;;;5012733;28;20076;-39
2021/08/22 08:35:56;;;;;;;2.60;2.13;;;24.20;51.10;;;;;;5012783;28;20049;-39
2021/08/22 08:38:22;;;;;;;5.07;2.08;;;24.80;50.60;;;;;;5011605;28;20381;-39
2021/08/22 08:40:47;;;;;;;2.80;1.90;;;24.80;49.80;;;;;;5012751;28;20026;-42
2021/08/22 08:43:17;;;;;;;3.05;2.22;;;24.50;50.70;;;;;;5012547;28;20056;-39
2021/08/22 08:46:07;;;;;;;3.33;2.35;;;24.40;51.30;;;;;;5027005;28;20036;-39
2021/08/22 08:48:36;;;;;;;2.45;1.90;;;24.70;50.80;;;;;;5032373;28;20021;-40
2021/08/22 08:51:10;;;;;;;3.70;2.30;;;25.00;50.60;;;;;;5032261;28;20029;-40
2021/08/22 08:53:50;;;;;;;2.25;2.05;;;25.70;50.00;;;;;;5031311;28;20025;-41
2021/08/22 08:56:39;;;;;;;3.35;2.10;;;26.00;46.80;;;;;;5032060;28;20025;-40
2021/08/22 08:59:05;;;;;;;2.97;2.40;;;26.10;46.10;;;;;;5032175;28;20053;-42
2021/08/22 09:01:30;;;;;;;2.67;2.20;;;25.60;47.50;;;;;;5031968;28;20061;-39
2021/08/22 09:04:14;;;;;;;8.23;2.80;;;25.40;47.90;;;;;;5033859;28;20567;-40
2021/08/22 09:07:12;;;;;;;2.67;2.35;;;24.90;48.90;;;;;;5035964;28;20025;-39
2021/08/22 09:10:16;;;;;;;3.65;2.92;;;24.50;50.30;;;;;;5034828;28;20049;-42
2021/08/22 09:12:56;;;;;;;5.30;2.53;;;24.30;52.40;;;;;;5035916;28;20029;-41
2021/08/22 09:15:44;;;;;;;2.42;2.00;;;24.30;52.60;;;;;;5034446;28;20029;-41
2021/08/22 09:18:24;;;;;;;2.50;2.17;;;24.40;53.00;;;;;;5035507;28;20041;-39
2021/08/22 09:21:08;;;;;;;3.05;2.30;;;24.30;53.00;;;;;;5035721;28;20025;-40
2021/08/22 09:23:53;;;;;;;3.25;2.28;;;24.10;54.10;;;;;;5034744;28;20076;-39
2021/08/22 09:26:39;;;;;;;2.63;2.40;;;24.10;54.10;;;;;;5035252;28;20025;-43
2021/08/22 09:29:42;;;;;;;3.45;2.83;;;24.40;53.60;;;;;;5035636;28;20029;-44
2021/08/22 09:33:02;;;;;;;2.90;2.35;;;24.80;51.60;;;;;;5035453;28;20056;-43
2021/08/22 09:36:04;;;;;;;2.63;2.42;;;25.00;50.80;;;;;;5035387;28;20032;-43
2021/08/22 09:39:08;;;;;;;3.00;2.42;;;24.90;50.90;;;;;;5034330;28;20037;-40
2021/08/22 09:41:43;;;;;;;2.83;2.40;;;24.60;50.80;;;;;;5035210;28;20037;-40
2021/08/22 09:44:43;;;;;;;2.83;2.40;;;24.30;53.10;;;;;;5035333;28;20551;-39
2021/08/22 09:47:47;;;;;;;2.90;2.53;;;24.20;54.20;;;;;;5035206;28;20040;-39
2021/08/22 09:50:50;;;;;;;3.72;2.63;;;24.40;53.60;;;;;;5035236;28;20044;-40
2021/08/22 09:54:01;;;;;;;2.83;2.50;;;24.50;54.50;;;;;;5034407;28;20377;-40
2021/08/22 09:57:06;;;;;;;3.20;2.40;;;24.60;53.00;;;;;;5035089;28;20060;-39
2021/08/22 09:59:45;;;;;;;2.90;2.60;;;24.70;52.90;;;;;;5033689;28;20060;-41
2021/08/22 10:02:47;;;;;;;2.97;2.65;;;24.40;53.30;;;;;;5034993;28;20025;-39
2021/08/22 10:05:34;;;;;;;4.43;2.45;;;24.20;54.50;;;;;;5034679;28;20049;-40
2021/08/22 10:08:08;;;;;;;2.58;2.28;;;24.20;55.20;;;;;;5033850;28;20097;-42
2021/08/22 10:10:37;;;;;;;3.15;2.33;;;24.20;55.10;;;;;;5034728;28;20025;-40
2021/08/22 10:13:03;;;;;;;3.63;2.53;;;24.10;55.70;;;;;;5034760;28;20018;-39
2021/08/22 10:15:29;;;;;;;4.65;3.47;;;24.10;56.20;;;;;;5034122;28;20035;-39
2021/08/22 10:17:55;;;;;;;2.80;2.50;;;23.80;56.50;;;;;;5034759;28;20104;-39
2021/08/22 10:20:20;;;;;;;3.35;2.38;;;23.70;57.20;;;;;;5034593;28;20037;-40
2021/08/22 10:22:51;;;;;;;2.45;2.25;;;23.60;57.60;;;;;;5034029;28;20030;-41
2021/08/22 10:25:46;;;;;;;2.60;2.40;;;23.50;58.20;;;;;;5034389;28;20539;-41
2021/08/22 10:28:13;;;;;;;5.05;2.97;;;23.40;59.50;;;;;;5034536;28;20076;-39
2021/08/22 10:30:42;;;;;;;2.53;2.30;;;23.30;59.80;;;;;;5034443;28;20022;-41
2021/08/22 10:33:09;;;;;;;4.25;2.45;;;23.20;60.60;;;;;;5034205;28;20025;-40
2021/08/22 10:35:34;;;;;;;3.33;2.17;;;23.10;61.00;;;;;;5033288;28;20480;-40
2021/08/22 10:38:24;;;;;;;2.92;2.20;;;23.10;61.50;;;;;;5033617;28;20041;-40
2021/08/22 10:40:51;;;;;;;3.25;2.28;;;23.20;62.40;;;;;;5034248;28;20029;-42
2021/08/22 10:43:20;;;;;;;3.47;2.60;;;23.30;62.10;;;;;;5034077;28;20461;-42
2021/08/22 10:45:52;;;;;;;3.25;2.67;;;23.40;63.20;;;;;;5033737;28;20411;-45
2021/08/22 10:48:27;;;;;;;3.03;2.50;;;23.40;62.20;;;;;;5033971;28;20022;-41
2021/08/22 10:51:08;;;;;;;3.05;2.63;;;23.50;61.90;;;;;;5033996;28;20108;-41
2021/08/22 10:53:43;;;;;;;3.78;3.03;;;23.60;62.60;;;;;;5032896;28;20033;-42
2021/08/22 10:56:23;;;;;;;3.10;2.72;;;23.70;61.60;;;;;;5033875;28;20054;-44
2021/08/22 10:59:02;;;;;;;2.97;2.38;;;23.90;62.00;;;;;;5032618;28;20073;-42
2021/08/22 11:01:32;;;;;;;4.30;3.30;;;24.00;62.30;;;;;;5033718;28;20104;-43
2021/08/22 11:04:11;;;;;;;3.00;2.70;;;23.90;61.40;;;;;;5033627;28;20061;-43
2021/08/22 11:07:06;;;;;;;3.42;2.78;;;23.80;61.90;;;;;;5033427;28;20030;-44
2021/08/22 11:09:35;;;;;;;5.68;3.55;;;23.60;63.00;;;;;;5032600;28;20461;-41
2021/08/22 11:12:01;;;;;;;3.13;2.78;;;23.50;63.60;;;;;;5033589;28;20472;-43
2021/08/22 11:14:26;;;;;;;3.05;2.78;;;23.40;64.50;;;;;;5033429;28;20065;-40
2021/08/22 11:16:52;;;;;;;5.30;3.05;;;23.30;65.30;;;;;;5033477;28;20122;-41
2021/08/22 11:19:21;;;;;;;3.88;3.10;;;23.30;65.60;;;;;;5033392;28;20029;-43
2021/08/22 11:21:47;;;;;;;3.25;2.67;;;23.40;65.90;;;;;;5033419;28;20026;-40
2021/08/22 11:24:12;;;;;;;3.60;2.90;;;23.40;65.70;;;;;;5032561;28;20017;-43
2021/08/22 11:26:38;;;;;;;3.55;2.60;;;23.50;65.90;;;;;;5032468;28;20460;-43
2021/08/22 11:29:05;;;;;;;3.22;2.92;;;23.50;65.60;;;;;;5033344;28;20408;-41
2021/08/22 11:31:31;;;;;;;2.85;2.53;;;23.40;65.80;;;;;;5032978;28;20500;-43
2021/08/22 11:34:08;;;;;;;2.72;2.50;;;23.30;66.10;;;;;;5033225;28;20040;-41
2021/08/22 11:36:33;;;;;;;5.38;3.33;;;23.20;66.50;;;;;;5033108;28;20021;-43
2021/08/22 11:39:07;;;;;;;3.20;2.72;;;23.10;67.60;;;;;;5032281;28;20029;-40
2021/08/22 11:41:33;;;;;;;3.47;2.80;;;23.00;68.80;;;;;;5033031;28;20087;-40
2021/08/22 11:43:58;;;;;;;3.90;2.95;;;22.80;69.20;;;;;;5033035;28;20025;-44
2021/08/22 11:46:24;;;;;;;5.20;3.17;;;22.60;71.00;;;;;;5032849;28;20043;-43
2021/08/22 11:48:50;;;;;;;4.38;3.05;;;22.40;71.80;;;;;;5032998;28;20029;-41
2021/08/22 11:51:15;;;;;;;6.45;3.28;;;22.20;76.70;;;;;;5033019;28;20061;-43
2021/08/22 11:53:41;;;;;;;4.30;3.15;;;21.70;89.20;;;;;;5031910;28;20385;-40
2021/08/22 11:56:06;;;;;;;6.60;3.13;;;21.30;93.50;;;;;;5032902;28;20038;-43
2021/08/22 11:58:34;;;;;;;3.88;2.70;;;20.90;99.00;;;;;;5032720;28;20039;-41
2021/08/22 12:01:17;;;;;;;3.85;2.83;;;20.80;99.90;;;;;;5032780;28;20104;-43
2021/08/22 12:04:02;;;;;;;5.38;3.10;;;20.60;99.90;;;;;;5032511;28;20045;-40
2021/08/22 12:06:31;;;;;;;3.17;2.88;;;20.60;99.90;;;;;;5032688;28;20481;-42
2021/08/22 12:08:57;;;;;;;8.02;3.95;;;20.50;99.90;;;;;;5031735;28;20108;-40
2021/08/22 12:11:23;;;;;;;6.63;3.00;;;20.40;99.90;;;;;;5032680;28;20386;-40
2021/08/22 12:13:50;;;;;;;7.20;3.90;;;20.40;99.90;;;;;;5032548;28;20017;-45
2021/08/22 12:16:33;;;;;;;6.20;3.72;;;20.40;99.90;;;;;;5032729;28;20492;-40
2021/08/22 12:19:18;;;;;;;4.43;3.35;;;20.40;99.90;;;;;;5032643;28;20029;-41
2021/08/22 12:21:45;;;;;;;4.10;3.38;;;20.50;99.90;;;;;;5032443;28;20057;-40
2021/08/22 12:24:31;;;;;;;6.22;3.58;;;20.50;99.90;;;;;;5031698;28;20038;-41
2021/08/22 12:27:01;;;;;;;5.13;2.72;;;20.50;99.90;;;;;;5032637;28;20067;-43
2021/08/22 12:29:35;;;;;;;5.55;3.30;;;20.60;99.90;;;;;;5032475;28;20117;-42
2021/08/22 12:32:19;;;;;;;4.07;3.42;;;20.70;99.90;;;;;;5032309;28;20057;-40
2021/08/22 12:34:45;;;;;;;5.85;3.53;;;20.60;99.90;;;;;;5032384;28;20101;-40
2021/08/22 12:37:14;;;;;;;8.45;3.80;;;20.60;99.90;;;;;;5033156;28;20044;-41
2021/08/22 12:39:40;;;;;;;5.85;3.42;;;20.50;99.90;;;;;;5035502;28;20021;-40
2021/08/22 12:42:06;;;;;;;4.43;3.35;;;20.40;99.90;;;;;;5035448;28;20410;-40
2021/08/22 12:44:33;;;;;;;5.88;3.65;;;20.30;99.90;;;;;;5036198;28;20156;-42
2021/08/22 12:47:01;;;;;;;5.85;4.70;;;20.20;99.90;;;;;;5036408;28;20384;-40
2021/08/22 12:49:28;;;;;;;5.18;3.80;;;20.20;99.90;;;;;;5036320;28;20025;-41
2021/08/22 12:51:59;;;;;;;5.13;3.55;;;20.10;99.90;;;;;;5036242;28;20025;-41
2021/08/22 12:54:27;;;;;;;5.60;4.28;;;20.10;99.90;;;;;;5035291;28;20025;-43
2021/08/22 12:56:54;;;;;;;5.78;3.97;;;20.10;99.90;;;;;;5036153;28;20022;-42
2021/08/22 12:59:20;;;;;;;7.93;4.05;;;20.20;99.90;;;;;;5036062;28;20050;-41